Barbados Meteorological Services
Auto gathered TAF list
Powered by Apparatus software
For Flight DE7414
Contact Number 1-(246)-535-0021/2/3/4/5/6
WEB: http://www.barbadosweather.org

**********************************************

2018/01/22 18:59
TAF TBPB 221700Z 2218/2318 10018KT 9999 SCT018
TEMPO 2218/2222 5000 SHRA BKN014


**********************************************
2018/01/22 18:01
TAF TAPA 221700Z 2218/2318 08012KT 9999 SCT020 PROB30
TEMPO 2218/2302 SHRA


**********************************************
2018/01/22 18:20
TAF LPPR 221700Z 2218/2318 VRB03KT 9999 SCT006 BKN025
BECMG 2219/2222 08005KT 8000 SCT002 BKN004 PROB40 2222/2308 0300 FG VV001
BECMG 2309/2311 9999 SCT008 BKN015
BECMG 2313/2316 33007KT FEW020


**********************************************
2018/01/22 18:18
TAF LPPD 221700Z 2218/2318 21012KT 9999 SCT015 BKN045 PROB40
TEMPO 2218/2318 6000 -RADZ SCT006 BKN012


**********************************************
2018/01/22 18:06
TAF TAF LPLA 221701Z 2218/2318 21015KT 9999 FEW015 SCT020
TEMPO 2218/2224 22018G28KT PROB30
TEMPO 2218/2318 8000 -SHRA SCT009 BKN014
BECMG 2301/2303 23010KT


**********************************************
2018/01/22 18:25
TAF LPAZ 221700Z 2218/2324 20012KT 9999 FEW018 BKN045 PROB30
TEMPO 2218/2324 6000 -RADZ SCT008 BKN015


**********************************************
2018/01/22 18:25
TAF LIMC 221700Z 2218/2324 VRB05KT CAVOK


**********************************************
2018/01/22 18:21
TAF LFPO 221700Z 2218/2324 33012KT 9999 BKN025
BECMG 2223/2302 22005KT
BECMG 2308/2310 BKN012
TEMPO 2309/2324 3000 -RADZ BKN008 PROB40
TEMPO 2320/2324 1200 DZRA BKN003


**********************************************
2018/01/22 18:27
TAF LEVT 221700Z 2218/2318 VRB05KT 9999 BKN025 TX15/2314Z TN05/2306Z
TEMPO 2218/2308 32010KT 3000 -RA BKN005 BKN010 PROB40
TEMPO 2300/2308 1500 -RA BCFG BKN005


**********************************************
2018/01/22 18:27
TAF LEMD 221700Z 2218/2324 VRB03KT CAVOK TX17/2315Z TN01/2307Z PROB40
TEMPO 2220/2309 02006KT PROB30
TEMPO 2305/2308 3000 BR SCT005


**********************************************
2018/01/22 18:33
TAF ESSA 221730Z 2218/2318 VRB02KT 9999 FEW007 BKN016
TEMPO 2218/2307 BKN007
BECMG 2310/2312 18010KT


**********************************************
2018/01/22 18:27
TAF ELLX 221700Z 2218/2324 31007KT 9999 BKN012
TEMPO 2220/2303 3000 BR BKN003
BECMG 2303/2306 20008KT
TEMPO 2306/2324 20010G20KT 2000 -RADZ BR BKN004


**********************************************
2012/04/19 12:15
TAF TAF EGTE 191401Z 1912/1924 31016KT 9999 SCT030 SCT035 PROB40
TEMPO 1915/1918 7000 SHRA BKN014


**********************************************
2018/01/22 18:15
TAF EGPK 221657Z 2218/2318 25012KT 9000 FEW015 SCT025
BECMG 2218/2221 19012KT 9999
TEMPO 2300/2318 19020G30KT PROB40
TEMPO 2303/2311 4000 RADZ BKN004


**********************************************
2018/01/22 18:15
TAF EGNT 221657Z 2218/2318 25012KT 9999 FEW020 SCT030
BECMG 2303/2306 19012KT
TEMPO 2306/2318 21018G28KT PROB40
TEMPO 2306/2313 7000 RA BKN012 PROB30
TEMPO 2316/2318 7000 SHRA


**********************************************
2018/01/22 21:44
TAF
AMD EGLL 222131Z 2221/2324 22008KT 9999 SCT035
BECMG 2304/2307 BKN012
TEMPO 2305/2318 6000 -RA BKN008 PROB40
TEMPO 2305/2312 3000 RADZ
TEMPO 2307/2318 23015G25KT
TEMPO 2312/2316 SCT025
BECMG 2322/2324 23015G25KT BKN008


**********************************************
2018/01/22 18:15
TAF EGKK 221701Z 2218/2324 27006KT 9999 SCT030
BECMG 2305/2308 21012KT BKN012
TEMPO 2307/2318 7000 -RA BKN008 PROB40
TEMPO 2307/2318 3000 RADZ BKN004 PROB30
TEMPO 2312/2324 24015G25KT
TEMPO 2318/2324 BKN015


**********************************************
2018/01/22 21:27
TAF
AMD TAF
AMD EGFF 222123Z 2221/2318 24010KT 9999 SCT030
TEMPO 2221/2302 BKN012
BECMG 2222/2301 15007KT
TEMPO 2302/2316 5000 -RA BKN006
BECMG 2305/2308 23014KT PROB40
TEMPO 2306/2309 0800 RADZ FG BKN001
TEMPO 2307/2318 25017G27KT PROB40
TEMPO 2314/2316 0800 RADZ FG BKN001


**********************************************
2018/01/22 18:15
TAF EGCC 221702Z 2218/2324 23010KT 9999 SCT040
BECMG 2222/2301 16011KT
TEMPO 2304/2324 18016G26KT
TEMPO 2305/2315 5000 -RADZ BKN009 PROB30
TEMPO 2305/2311 3000 RADZ BKN004


**********************************************
2018/01/22 18:15
TAF EGBB 221702Z 2218/2318 24007KT 9999 SCT040
BECMG 2303/2306 18012KT
TEMPO 2303/2318 6000 -RA BKN010
TEMPO 2304/2318 20017G27KT PROB30
TEMPO 2304/2311 4000 RADZ BKN007 PROB30
TEMPO 2314/2317 BKN007


**********************************************
2018/01/22 18:27
TAF EDDM 221700Z 2218/2324 25005KT 9000 BKN025
BECMG 2218/2220 26010KT PROB30
TEMPO 2218/2221 4000 RA BKN012
TEMPO 2221/2308 4000 -DZRA BKN008
BECMG 2315/2317 23005KT


**********************************************
2018/01/22 18:27
TAF EDDL 221700Z 2218/2324 26008KT 9999 SCT015 BKN040
BECMG 2305/2308 18012KT
TEMPO 2316/2321 20015G25KT BKN014


**********************************************
2018/01/22 18:27
TAF EDDK 221700Z 2218/2324 30007KT 9999 SCT015 BKN040
BECMG 2300/2303 23006KT
TEMPO 2302/2308 BKN014
BECMG 2308/2311 17008KT


**********************************************
2018/01/22 18:27
TAF TAF EDDF 221700Z 2218/2324 26005KT 9999 BKN030
TEMPO 2218/2309 SCT030 PROB30
TEMPO 2218/2221 4000 BR
BECMG 2304/2306 20009KT


**********************************************
2018/01/22 18:27
TAF TAF EBBR 221700Z 2218/2324 29008KT 9999 FEW020 SCT040 PROB30
TEMPO 2303/2308 BKN011
BECMG 2307/2309 21012KT
TEMPO 2314/2317 4500 -RADZ SCT005 BKN010


**********************************************